sensor_id;sensor_type;location;lat;lon;timestamp;noise_LAeq;noise_LA_min;noise_LA_max;noise_LA01;noise_LA95
37223;Laerm;28026;48.562;14.440;2022-10-31T00:00:32;37.60;32.35;40.53;;
37223;Laerm;28026;48.562;14.440;2022-10-31T00:03:03;37.30;32.35;40.71;;
37223;Laerm;28026;48.562;14.440;2022-10-31T00:05:34;37.60;33.44;41.14;;
37223;Laerm;28026;48.562;14.440;2022-10-31T00:08:05;37.45;32.35;40.71;;
37223;Laerm;28026;48.562;14.440;2022-10-31T00:10:41;37.07;31.68;40.98;;
37223;Laerm;28026;48.562;14.440;2022-10-31T00:13:14;37.24;32.35;40.03;;
37223;Laerm;28026;48.562;14.440;2022-10-31T00:15:45;37.24;31.68;41.22;;
37223;Laerm;28026;48.562;14.440;2022-10-31T00:18:16;37.48;30.89;43.14;;
37223;Laerm;28026;48.562;14.440;2022-10-31T00:20:47;37.43;32.93;40.33;;
37223;Laerm;28026;48.562;14.440;2022-10-31T00:23:18;37.08;30.89;42.59;;
37223;Laerm;28026;48.562;14.440;2022-10-31T00:25:49;39.41;32.93;48.42;;
37223;Laerm;28026;48.562;14.440;2022-10-31T00:28:20;37.88;32.93;44.15;;
37223;Laerm;28026;48.562;14.440;2022-10-31T00:30:50;37.36;32.35;40.43;;
37223;Laerm;28026;48.562;14.440;2022-10-31T00:33:21;37.44;32.35;42.35;;
37223;Laerm;28026;48.562;14.440;2022-10-31T00:35:52;37.29;32.35;41.68;;
37223;Laerm;28026;48.562;14.440;2022-10-31T00:38:23;40.53;32.35;48.36;;
37223;Laerm;28026;48.562;14.440;2022-10-31T00:40:54;40.80;32.93;45.63;;
37223;Laerm;28026;48.562;14.440;2022-10-31T00:43:25;40.87;32.35;53.50;;
37223;Laerm;28026;48.562;14.440;2022-10-31T00:45:56;37.22;31.68;41.14;;
37223;Laerm;28026;48.562;14.440;2022-10-31T00:48:28;41.75;32.93;45.42;;
37223;Laerm;28026;48.562;14.440;2022-10-31T00:50:59;39.01;33.44;48.92;;
37223;Laerm;28026;48.562;14.440;2022-10-31T00:53:30;37.44;32.35;40.98;;
37223;Laerm;28026;48.562;14.440;2022-10-31T00:56:01;37.64;30.89;43.81;;
37223;Laerm;28026;48.562;14.440;2022-10-31T00:58:32;37.04;32.35;42.29;;
37223;Laerm;28026;48.562;14.440;2022-10-31T01:01:04;37.21;29.92;47.59;;
37223;Laerm;28026;48.562;14.440;2022-10-31T01:03:35;37.27;31.68;41.96;;
37223;Laerm;28026;48.562;14.440;2022-10-31T01:06:11;37.17;30.89;42.03;;
37223;Laerm;28026;48.562;14.440;2022-10-31T01:08:42;37.55;32.35;40.71;;
37223;Laerm;28026;48.562;14.440;2022-10-31T01:11:22;37.96;33.44;44.69;;
37223;Laerm;28026;48.562;14.440;2022-10-31T01:13:54;37.19;32.93;41.53;;
37223;Laerm;28026;48.562;14.440;2022-10-31T01:16:27;38.50;32.93;42.29;;
37223;Laerm;28026;48.562;14.440;2022-10-31T01:19:00;39.43;34.31;44.07;;
37223;Laerm;28026;48.562;14.440;2022-10-31T01:21:31;37.62;31.68;43.04;;
37223;Laerm;28026;48.562;14.440;2022-10-31T01:24:02;37.16;30.89;42.29;;
37223;Laerm;28026;48.562;14.440;2022-10-31T01:26:33;37.35;31.68;40.62;;
37223;Laerm;28026;48.562;14.440;2022-10-31T01:29:07;37.40;31.68;40.62;;
37223;Laerm;28026;48.562;14.440;2022-10-31T01:31:39;37.90;32.35;43.24;;
37223;Laerm;28026;48.562;14.440;2022-10-31T01:34:17;37.18;32.93;47.02;;
37223;Laerm;28026;48.562;14.440;2022-10-31T01:36:48;37.32;32.35;40.89;;
37223;Laerm;28026;48.562;14.440;2022-10-31T01:39:21;37.44;33.44;41.22;;
37223;Laerm;28026;48.562;14.440;2022-10-31T01:41:54;38.19;32.35;44.69;;
37223;Laerm;28026;48.562;14.440;2022-10-31T01:47:14;38.92;32.93;43.90;;
37223;Laerm;28026;48.562;14.440;2022-10-31T01:49:53;37.39;30.89;50.89;;
37223;Laerm;28026;48.562;14.440;2022-10-31T01:52:40;37.84;32.35;42.47;;
37223;Laerm;28026;48.562;14.440;2022-10-31T01:55:28;40.38;33.44;43.85;;
37223;Laerm;28026;48.562;14.440;2022-10-31T01:58:30;38.13;31.68;41.22;;
37223;Laerm;28026;48.562;14.440;2022-10-31T02:01:05;37.85;32.35;42.22;;
37223;Laerm;28026;48.562;14.440;2022-10-31T02:03:36;37.66;32.93;41.14;;
37223;Laerm;28026;48.562;14.440;2022-10-31T02:06:27;37.43;32.58;41.22;;
37223;Laerm;28026;48.562;14.440;2022-10-31T02:09:05;40.00;34.34;46.15;;
37223;Laerm;28026;48.562;14.440;2022-10-31T02:11:37;39.76;33.90;47.00;;
37223;Laerm;28026;48.562;14.440;2022-10-31T02:14:08;38.18;32.93;45.04;;
37223;Laerm;28026;48.562;14.440;2022-10-31T02:16:39;42.25;34.31;48.87;;
37223;Laerm;28026;48.562;14.440;2022-10-31T02:22:30;38.10;32.35;43.34;;
37223;Laerm;28026;48.562;14.440;2022-10-31T02:32:01;38.83;32.35;42.93;;
37223;Laerm;28026;48.562;14.440;2022-10-31T02:34:58;37.94;32.35;43.29;;
37223;Laerm;28026;48.562;14.440;2022-10-31T02:38:15;38.20;32.93;41.82;;
37223;Laerm;28026;48.562;14.440;2022-10-31T02:41:33;37.89;31.68;45.51;;
37223;Laerm;28026;48.562;14.440;2022-10-31T02:47:28;37.83;31.68;41.46;;
37223;Laerm;28026;48.562;14.440;2022-10-31T02:50:10;37.80;32.93;43.14;;
37223;Laerm;28026;48.562;14.440;2022-10-31T02:52:43;38.70;33.90;49.40;;
37223;Laerm;28026;48.562;14.440;2022-10-31T02:58:01;41.02;35.36;44.31;;
37223;Laerm;28026;48.562;14.440;2022-10-31T03:04:37;39.09;32.35;44.94;;
37223;Laerm;28026;48.562;14.440;2022-10-31T03:07:54;39.05;32.35;44.51;;
37223;Laerm;28026;48.562;14.440;2022-10-31T03:13:50;41.70;32.93;49.96;;
37223;Laerm;28026;48.562;14.440;2022-10-31T03:16:49;40.56;35.04;45.57;;
37223;Laerm;28026;48.562;14.440;2022-10-31T03:19:33;39.94;35.36;44.94;;
37223;Laerm;28026;48.562;14.440;2022-10-31T03:22:20;40.86;35.66;48.42;;
37223;Laerm;28026;48.562;14.440;2022-10-31T03:24:55;40.84;35.04;45.91;;
37223;Laerm;28026;48.562;14.440;2022-10-31T03:27:33;42.38;36.45;47.24;;
37223;Laerm;28026;48.562;14.440;2022-10-31T03:30:08;39.74;35.04;43.63;;
37223;Laerm;28026;48.562;14.440;2022-10-31T03:32:51;41.50;35.66;45.23;;
37223;Laerm;28026;48.562;14.440;2022-10-31T03:35:27;40.29;35.66;45.57;;
37223;Laerm;28026;48.562;14.440;2022-10-31T03:38:01;40.59;35.04;46.73;;
37223;Laerm;28026;48.562;14.440;2022-10-31T03:40:38;40.67;35.66;46.45;;
37223;Laerm;28026;48.562;14.440;2022-10-31T03:43:19;39.59;33.90;43.58;;
37223;Laerm;28026;48.562;14.440;2022-10-31T03:45:56;42.18;36.45;46.33;;
37223;Laerm;28026;48.562;14.440;2022-10-31T03:56:42;41.83;34.69;46.41;;
37223;Laerm;28026;48.562;14.440;2022-10-31T03:59:39;45.61;40.33;57.08;;
37223;Laerm;28026;48.562;14.440;2022-10-31T04:02:34;43.12;36.69;48.76;;
37223;Laerm;28026;48.562;14.440;2022-10-31T04:05:32;41.81;36.20;45.72;;
37223;Laerm;28026;48.562;14.440;2022-10-31T04:08:36;41.76;36.45;48.07;;
37223;Laerm;28026;48.562;14.440;2022-10-31T04:12:00;39.55;35.94;44.27;;
37223;Laerm;28026;48.562;14.440;2022-10-31T04:15:12;39.53;34.31;49.43;;
37223;Laerm;28026;48.562;14.440;2022-10-31T04:18:02;39.68;32.93;45.91;;
37223;Laerm;28026;48.562;14.440;2022-10-31T04:23:38;41.52;35.66;45.77;;
37223;Laerm;28026;48.562;14.440;2022-10-31T04:26:18;40.75;36.45;51.24;;
37223;Laerm;28026;48.562;14.440;2022-10-31T04:28:52;39.13;34.69;43.19;;
37223;Laerm;28026;48.562;14.440;2022-10-31T04:31:26;41.38;36.45;45.89;;
37223;Laerm;28026;48.562;14.440;2022-10-31T04:34:00;43.79;40.13;49.33;;
37223;Laerm;28026;48.562;14.440;2022-10-31T04:36:34;42.97;38.52;48.57;;
37223;Laerm;28026;48.562;14.440;2022-10-31T04:39:08;42.79;37.70;45.33;;
37223;Laerm;28026;48.562;14.440;2022-10-31T04:41:42;40.94;35.94;58.41;;
37223;Laerm;28026;48.562;14.440;2022-10-31T04:44:25;43.53;39.21;47.74;;
37223;Laerm;28026;48.562;14.440;2022-10-31T04:47:35;43.64;37.52;50.56;;
37223;Laerm;28026;48.562;14.440;2022-10-31T04:50:24;41.66;36.69;48.21;;
37223;Laerm;28026;48.562;14.440;2022-10-31T04:52:58;41.58;35.94;53.25;;
37223;Laerm;28026;48.562;14.440;2022-10-31T04:55:32;40.91;37.12;47.08;;
37223;Laerm;28026;48.562;14.440;2022-10-31T04:58:06;43.53;38.05;51.57;;
37223;Laerm;28026;48.562;14.440;2022-10-31T05:00:40;41.92;35.66;45.72;;
37223;Laerm;28026;48.562;14.440;2022-10-31T05:03:17;43.37;39.70;47.72;;
37223;Laerm;28026;48.562;14.440;2022-10-31T05:06:00;42.47;37.12;48.52;;
37223;Laerm;28026;48.562;14.440;2022-10-31T05:08:32;39.92;35.66;44.19;;
37223;Laerm;28026;48.562;14.440;2022-10-31T05:11:06;40.06;36.10;47.06;;
37223;Laerm;28026;48.562;14.440;2022-10-31T05:13:40;42.49;36.69;45.39;;
37223;Laerm;28026;48.562;14.440;2022-10-31T05:16:17;40.45;35.66;47.17;;
37223;Laerm;28026;48.562;14.440;2022-10-31T05:18:48;42.39;36.69;48.45;;
37223;Laerm;28026;48.562;14.440;2022-10-31T05:21:31;42.41;37.70;49.12;;
37223;Laerm;28026;48.562;14.440;2022-10-31T05:24:41;42.05;36.45;52.58;;
37223;Laerm;28026;48.562;14.440;2022-10-31T05:27:18;43.15;37.12;54.03;;
37223;Laerm;28026;48.562;14.440;2022-10-31T05:29:55;41.91;37.52;45.59;;
37223;Laerm;28026;48.562;14.440;2022-10-31T05:32:29;40.46;35.94;45.83;;
37223;Laerm;28026;48.562;14.440;2022-10-31T05:35:00;42.72;37.52;51.34;;
37223;Laerm;28026;48.562;14.440;2022-10-31T05:37:31;43.47;38.95;52.20;;
37223;Laerm;28026;48.562;14.440;2022-10-31T05:40:10;44.14;39.58;52.11;;
37223;Laerm;28026;48.562;14.440;2022-10-31T05:42:45;44.42;41.38;50.00;;
37223;Laerm;28026;48.562;14.440;2022-10-31T05:45:27;43.21;39.08;52.70;;
37223;Laerm;28026;48.562;14.440;2022-10-31T05:48:02;42.61;38.67;47.50;;
37223;Laerm;28026;48.562;14.440;2022-10-31T05:50:36;42.57;39.21;47.88;;
37223;Laerm;28026;48.562;14.440;2022-10-31T05:53:25;42.27;37.88;48.40;;
37223;Laerm;28026;48.562;14.440;2022-10-31T05:55:59;41.01;36.91;45.86;;
37223;Laerm;28026;48.562;14.440;2022-10-31T05:58:36;43.70;37.52;58.99;;
37223;Laerm;28026;48.562;14.440;2022-10-31T06:01:10;42.22;38.52;46.10;;
37223;Laerm;28026;48.562;14.440;2022-10-31T06:03:41;43.60;39.58;49.40;;
37223;Laerm;28026;48.562;14.440;2022-10-31T06:06:12;43.09;38.37;56.55;;
37223;Laerm;28026;48.562;14.440;2022-10-31T06:08:43;42.38;38.05;51.46;;
37223;Laerm;28026;48.562;14.440;2022-10-31T06:11:17;43.75;40.43;56.63;;
37223;Laerm;28026;48.562;14.440;2022-10-31T06:14:00;44.05;41.06;54.73;;
37223;Laerm;28026;48.562;14.440;2022-10-31T06:16:34;43.42;40.13;53.64;;
37223;Laerm;28026;48.562;14.440;2022-10-31T06:19:08;43.48;40.13;60.66;;
37223;Laerm;28026;48.562;14.440;2022-10-31T06:22:11;43.80;40.62;56.84;;
37223;Laerm;28026;48.562;14.440;2022-10-31T06:24:45;44.14;41.14;53.32;;
37223;Laerm;28026;48.562;14.440;2022-10-31T06:27:16;43.52;40.80;46.13;;
37223;Laerm;28026;48.562;14.440;2022-10-31T06:29:47;47.15;43.09;55.25;;
37223;Laerm;28026;48.562;14.440;2022-10-31T06:32:21;44.05;41.46;49.57;;
37223;Laerm;28026;48.562;14.440;2022-10-31T06:34:55;43.28;39.92;56.06;;
37223;Laerm;28026;48.562;14.440;2022-10-31T06:37:26;42.98;39.81;52.08;;
37223;Laerm;28026;48.562;14.440;2022-10-31T06:40:04;42.72;38.05;47.61;;
37223;Laerm;28026;48.562;14.440;2022-10-31T06:42:38;42.73;38.05;55.41;;
37223;Laerm;28026;48.562;14.440;2022-10-31T06:45:21;42.45;38.52;50.39;;
37223;Laerm;28026;48.562;14.440;2022-10-31T06:48:01;43.82;39.21;56.91;;
37223;Laerm;28026;48.562;14.440;2022-10-31T06:51:08;45.18;40.89;59.16;;
37223;Laerm;28026;48.562;14.440;2022-10-31T06:54:08;44.16;38.95;52.36;;
37223;Laerm;28026;48.562;14.440;2022-10-31T06:57:27;46.66;39.21;57.84;;
37223;Laerm;28026;48.562;14.440;2022-10-31T07:00:14;44.55;41.30;53.01;;
37223;Laerm;28026;48.562;14.440;2022-10-31T07:03:36;43.81;38.37;62.11;;
37223;Laerm;28026;48.562;14.440;2022-10-31T07:06:07;43.51;38.95;47.14;;
37223;Laerm;28026;48.562;14.440;2022-10-31T07:08:38;43.45;40.03;50.52;;
37223;Laerm;28026;48.562;14.440;2022-10-31T07:11:08;43.22;40.13;51.22;;
37223;Laerm;28026;48.562;14.440;2022-10-31T07:13:39;43.13;40.03;48.32;;
37223;Laerm;28026;48.562;14.440;2022-10-31T07:16:10;43.91;39.08;51.01;;
37223;Laerm;28026;48.562;14.440;2022-10-31T07:18:43;42.90;39.34;48.61;;
37223;Laerm;28026;48.562;14.440;2022-10-31T07:21:14;42.47;38.05;51.73;;
37223;Laerm;28026;48.562;14.440;2022-10-31T07:23:48;42.87;39.92;47.10;;
37223;Laerm;28026;48.562;14.440;2022-10-31T07:26:19;42.41;38.05;49.62;;
37223;Laerm;28026;48.562;14.440;2022-10-31T07:28:50;43.47;39.21;53.00;;
37223;Laerm;28026;48.562;14.440;2022-10-31T07:31:22;44.13;40.71;50.77;;
37223;Laerm;28026;48.562;14.440;2022-10-31T07:33:52;43.03;40.08;48.58;;
37223;Laerm;28026;48.562;14.440;2022-10-31T07:36:23;43.20;39.70;49.45;;
37223;Laerm;28026;48.562;14.440;2022-10-31T07:38:54;44.19;39.34;50.16;;
37223;Laerm;28026;48.562;14.440;2022-10-31T07:41:25;42.34;38.81;53.08;;
37223;Laerm;28026;48.562;14.440;2022-10-31T07:43:56;41.63;38.18;45.63;;
37223;Laerm;28026;48.562;14.440;2022-10-31T07:46:27;43.07;40.03;48.28;;
37223;Laerm;28026;48.562;14.440;2022-10-31T07:48:58;43.18;38.52;52.99;;
37223;Laerm;28026;48.562;14.440;2022-10-31T07:51:29;44.13;40.62;54.30;;
37223;Laerm;28026;48.562;14.440;2022-10-31T07:54:00;42.95;39.81;59.14;;
37223;Laerm;28026;48.562;14.440;2022-10-31T07:56:31;42.79;39.21;57.63;;
37223;Laerm;28026;48.562;14.440;2022-10-31T07:59:02;43.70;39.21;48.69;;
37223;Laerm;28026;48.562;14.440;2022-10-31T08:01:33;42.90;37.32;52.59;;
37223;Laerm;28026;48.562;14.440;2022-10-31T08:04:04;42.84;39.46;48.40;;
37223;Laerm;28026;48.562;14.440;2022-10-31T08:06:35;42.11;38.95;47.34;;
37223;Laerm;28026;48.562;14.440;2022-10-31T08:09:06;43.60;38.81;60.20;;
37223;Laerm;28026;48.562;14.440;2022-10-31T08:11:37;43.27;39.21;55.01;;
37223;Laerm;28026;48.562;14.440;2022-10-31T08:14:08;43.12;38.52;54.54;;
37223;Laerm;28026;48.562;14.440;2022-10-31T08:16:38;42.40;38.37;48.49;;
37223;Laerm;28026;48.562;14.440;2022-10-31T08:19:09;41.03;36.69;54.07;;
37223;Laerm;28026;48.562;14.440;2022-10-31T08:21:40;41.09;37.32;45.25;;
37223;Laerm;28026;48.562;14.440;2022-10-31T08:24:11;43.05;38.81;49.02;;
37223;Laerm;28026;48.562;14.440;2022-10-31T08:26:42;43.29;40.43;48.29;;
37223;Laerm;28026;48.562;14.440;2022-10-31T08:29:13;43.10;37.52;59.60;;
37223;Laerm;28026;48.562;14.440;2022-10-31T08:31:45;41.75;38.05;54.21;;
37223;Laerm;28026;48.562;14.440;2022-10-31T08:34:16;41.07;36.69;55.89;;
37223;Laerm;28026;48.562;14.440;2022-10-31T08:36:46;41.09;36.91;47.93;;
37223;Laerm;28026;48.562;14.440;2022-10-31T08:39:17;40.76;37.32;43.54;;
37223;Laerm;28026;48.562;14.440;2022-10-31T08:41:48;41.75;36.91;46.05;;
37223;Laerm;28026;48.562;14.440;2022-10-31T08:44:19;42.86;37.70;46.45;;
37223;Laerm;28026;48.562;14.440;2022-10-31T08:46:50;42.42;37.70;44.97;;
37223;Laerm;28026;48.562;14.440;2022-10-31T08:49:21;42.02;36.34;47.98;;
37223;Laerm;28026;48.562;14.440;2022-10-31T08:51:52;40.70;37.12;52.57;;
37223;Laerm;28026;48.562;14.440;2022-10-31T08:54:23;41.79;36.45;54.28;;
37223;Laerm;28026;48.562;14.440;2022-10-31T08:56:55;42.04;37.70;58.31;;
37223;Laerm;28026;48.562;14.440;2022-10-31T08:59:26;43.35;40.43;47.72;;
37223;Laerm;28026;48.562;14.440;2022-10-31T09:01:57;42.51;37.32;49.16;;
37223;Laerm;28026;48.562;14.440;2022-10-31T09:04:28;41.41;37.12;52.34;;
37223;Laerm;28026;48.562;14.440;2022-10-31T09:06:59;42.54;36.91;53.62;;
37223;Laerm;28026;48.562;14.440;2022-10-31T09:09:30;42.01;37.70;51.19;;
37223;Laerm;28026;48.562;14.440;2022-10-31T09:12:01;41.99;37.35;58.17;;
37223;Laerm;28026;48.562;14.440;2022-10-31T09:14:31;43.03;39.08;50.03;;
37223;Laerm;28026;48.562;14.440;2022-10-31T09:17:02;42.75;38.05;50.42;;
37223;Laerm;28026;48.562;14.440;2022-10-31T09:19:33;43.08;38.37;54.12;;
37223;Laerm;28026;48.562;14.440;2022-10-31T09:22:04;42.54;38.37;53.05;;
37223;Laerm;28026;48.562;14.440;2022-10-31T09:24:35;43.05;40.03;45.54;;
37223;Laerm;28026;48.562;14.440;2022-10-31T09:27:06;42.58;37.70;50.35;;
37223;Laerm;28026;48.562;14.440;2022-10-31T09:29:39;42.98;38.81;52.04;;
37223;Laerm;28026;48.562;14.440;2022-10-31T09:32:10;42.77;38.37;55.60;;
37223;Laerm;28026;48.562;14.440;2022-10-31T09:34:40;42.85;38.67;46.73;;
37223;Laerm;28026;48.562;14.440;2022-10-31T09:37:11;42.90;39.34;53.97;;
37223;Laerm;28026;48.562;14.440;2022-10-31T09:39:42;42.04;36.91;53.88;;
37223;Laerm;28026;48.562;14.440;2022-10-31T09:42:51;52.04;39.08;66.35;;
37223;Laerm;28026;48.562;14.440;2022-10-31T09:45:46;43.82;40.13;53.79;;
37223;Laerm;28026;48.562;14.440;2022-10-31T09:51:34;42.97;38.81;55.95;;
37223;Laerm;28026;48.562;14.440;2022-10-31T09:54:19;43.25;38.52;53.16;;
37223;Laerm;28026;48.562;14.440;2022-10-31T09:56:51;43.84;40.03;60.77;;
37223;Laerm;28026;48.562;14.440;2022-10-31T09:59:39;43.69;39.34;53.29;;
37223;Laerm;28026;48.562;14.440;2022-10-31T10:02:41;43.84;40.62;51.87;;
37223;Laerm;28026;48.562;14.440;2022-10-31T10:05:22;43.62;39.70;58.57;;
37223;Laerm;28026;48.562;14.440;2022-10-31T10:08:18;44.23;40.33;55.93;;
37223;Laerm;28026;48.562;14.440;2022-10-31T10:14:40;44.19;40.13;53.74;;
37223;Laerm;28026;48.562;14.440;2022-10-31T10:26:42;44.32;36.69;56.20;;
37223;Laerm;28026;48.562;14.440;2022-10-31T10:29:39;40.83;35.66;54.02;;
37223;Laerm;28026;48.562;14.440;2022-10-31T10:32:28;40.62;36.45;62.79;;
37223;Laerm;28026;48.562;14.440;2022-10-31T10:35:21;41.80;35.31;45.89;;
37223;Laerm;28026;48.562;14.440;2022-10-31T10:41:07;40.21;35.36;48.39;;
37223;Laerm;28026;48.562;14.440;2022-10-31T10:43:42;42.48;36.45;63.87;;
37223;Laerm;28026;48.562;14.440;2022-10-31T10:46:55;42.70;38.21;52.52;;
37223;Laerm;28026;48.562;14.440;2022-10-31T10:49:51;42.75;38.95;47.10;;
37223;Laerm;28026;48.562;14.440;2022-10-31T10:52:44;42.52;39.08;62.33;;
37223;Laerm;28026;48.562;14.440;2022-10-31T10:56:08;42.98;36.69;53.90;;
37223;Laerm;28026;48.562;14.440;2022-10-31T10:58:42;42.95;37.52;46.33;;
37223;Laerm;28026;48.562;14.440;2022-10-31T11:01:15;40.55;36.20;63.16;;
37223;Laerm;28026;48.562;14.440;2022-10-31T11:03:46;41.27;36.45;47.48;;
37223;Laerm;28026;48.562;14.440;2022-10-31T11:06:23;42.91;37.87;54.82;;
37223;Laerm;28026;48.562;14.440;2022-10-31T11:08:56;40.82;35.36;62.37;;
37223;Laerm;28026;48.562;14.440;2022-10-31T11:11:29;39.86;34.69;54.59;;
37223;Laerm;28026;48.562;14.440;2022-10-31T11:14:15;39.68;34.31;54.51;;
37223;Laerm;28026;48.562;14.440;2022-10-31T11:16:55;45.19;36.20;56.45;;
37223;Laerm;28026;48.562;14.440;2022-10-31T11:19:38;42.84;35.94;55.19;;
37223;Laerm;28026;48.562;14.440;2022-10-31T11:22:17;43.06;37.52;53.90;;
37223;Laerm;28026;48.562;14.440;2022-10-31T11:24:48;39.81;35.04;43.19;;
37223;Laerm;28026;48.562;14.440;2022-10-31T11:27:25;40.82;35.36;63.24;;
37223;Laerm;28026;48.562;14.440;2022-10-31T11:30:06;40.36;34.69;57.09;;
37223;Laerm;28026;48.562;14.440;2022-10-31T11:32:49;40.02;35.36;45.23;;
37223;Laerm;28026;48.562;14.440;2022-10-31T11:35:25;43.42;32.93;56.48;;
37223;Laerm;28026;48.562;14.440;2022-10-31T11:38:06;42.25;35.04;54.25;;
37223;Laerm;28026;48.562;14.440;2022-10-31T11:40:37;38.64;32.35;53.00;;
37223;Laerm;28026;48.562;14.440;2022-10-31T11:43:18;40.09;34.31;47.02;;
37223;Laerm;28026;48.562;14.440;2022-10-31T11:45:49;39.80;32.35;53.58;;
37223;Laerm;28026;48.562;14.440;2022-10-31T11:48:24;40.65;35.04;43.99;;
37223;Laerm;28026;48.562;14.440;2022-10-31T11:50:58;39.92;34.69;51.16;;
37223;Laerm;28026;48.562;14.440;2022-10-31T11:53:34;39.62;33.90;62.56;;
37223;Laerm;28026;48.562;14.440;2022-10-31T11:56:16;41.27;34.69;55.02;;
37223;Laerm;28026;48.562;14.440;2022-10-31T11:59:30;39.71;32.93;49.86;;
37223;Laerm;28026;48.562;14.440;2022-10-31T12:02:02;41.62;37.32;46.02;;
37223;Laerm;28026;48.562;14.440;2022-10-31T12:04:46;44.75;37.52;75.47;;
37223;Laerm;28026;48.562;14.440;2022-10-31T12:07:19;43.02;36.69;49.24;;
37223;Laerm;28026;48.562;14.440;2022-10-31T12:09:50;42.31;38.05;56.01;;
37223;Laerm;28026;48.562;14.440;2022-10-31T12:13:30;41.61;37.12;65.01;;
37223;Laerm;28026;48.562;14.440;2022-10-31T12:19:31;41.87;36.45;44.23;;
37223;Laerm;28026;48.562;14.440;2022-10-31T12:26:26;42.87;38.05;53.60;;
37223;Laerm;28026;48.562;14.440;2022-10-31T12:36:04;47.03;38.05;58.36;;
37223;Laerm;28026;48.562;14.440;2022-10-31T12:39:16;40.15;33.90;50.60;;
37223;Laerm;28026;48.562;14.440;2022-10-31T12:46:13;39.96;34.69;50.54;;
37223;Laerm;28026;48.562;14.440;2022-10-31T12:52:40;41.05;35.66;55.64;;
37223;Laerm;28026;48.562;14.440;2022-10-31T12:58:23;41.63;37.12;44.76;;
37223;Laerm;28026;48.562;14.440;2022-10-31T13:01:44;40.88;35.04;44.87;;
37223;Laerm;28026;48.562;14.440;2022-10-31T13:04:57;40.46;35.66;49.07;;
37223;Laerm;28026;48.562;14.440;2022-10-31T13:07:52;41.24;36.91;61.76;;
37223;Laerm;28026;48.562;14.440;2022-10-31T13:10:43;39.99;35.94;47.10;;
37223;Laerm;28026;48.562;14.440;2022-10-31T13:13:57;39.91;35.94;43.90;;
37223;Laerm;28026;48.562;14.440;2022-10-31T13:16:46;41.17;36.91;47.14;;
37223;Laerm;28026;48.562;14.440;2022-10-31T13:19:27;42.11;36.45;46.48;;
37223;Laerm;28026;48.562;14.440;2022-10-31T13:22:27;42.10;35.36;51.48;;
37223;Laerm;28026;48.562;14.440;2022-10-31T13:25:17;40.59;35.66;56.34;;
37223;Laerm;28026;48.562;14.440;2022-10-31T13:28:03;41.36;36.20;59.51;;
37223;Laerm;28026;48.562;14.440;2022-10-31T13:30:42;40.19;34.31;60.48;;
37223;Laerm;28026;48.562;14.440;2022-10-31T13:33:22;43.57;35.66;55.08;;
37223;Laerm;28026;48.562;14.440;2022-10-31T13:36:38;40.04;34.31;52.67;;
37223;Laerm;28026;48.562;14.440;2022-10-31T13:39:40;54.43;35.36;83.05;;
37223;Laerm;28026;48.562;14.440;2022-10-31T13:45:18;46.38;36.45;69.72;;
37223;Laerm;28026;48.562;14.440;2022-10-31T13:51:04;44.71;35.94;61.01;;
37223;Laerm;28026;48.562;14.440;2022-10-31T13:53:58;45.73;36.91;61.98;;
37223;Laerm;28026;48.562;14.440;2022-10-31T13:56:33;42.39;36.91;56.64;;
37223;Laerm;28026;48.562;14.440;2022-10-31T14:01:53;45.06;38.67;63.31;;
37223;Laerm;28026;48.562;14.440;2022-10-31T14:04:52;53.92;34.31;79.05;;
37223;Laerm;28026;48.562;14.440;2022-10-31T14:07:26;40.06;35.04;55.75;;
37223;Laerm;28026;48.562;14.440;2022-10-31T14:10:38;41.28;34.69;47.65;;
37223;Laerm;28026;48.562;14.440;2022-10-31T14:13:31;39.99;35.94;44.23;;
37223;Laerm;28026;48.562;14.440;2022-10-31T14:16:28;40.77;36.20;54.39;;
37223;Laerm;28026;48.562;14.440;2022-10-31T14:19:14;41.62;37.12;45.07;;
37223;Laerm;28026;48.562;14.440;2022-10-31T14:21:49;42.73;37.12;46.23;;
37223;Laerm;28026;48.562;14.440;2022-10-31T14:27:04;41.63;37.12;46.28;;
37223;Laerm;28026;48.562;14.440;2022-10-31T14:29:35;41.68;35.36;50.46;;
37223;Laerm;28026;48.562;14.440;2022-10-31T14:32:18;41.38;36.45;54.97;;
37223;Laerm;28026;48.562;14.440;2022-10-31T14:34:52;41.39;36.91;50.25;;
37223;Laerm;28026;48.562;14.440;2022-10-31T14:41:47;41.29;36.91;47.98;;
37223;Laerm;28026;48.562;14.440;2022-10-31T14:47:20;43.07;37.70;62.37;;
37223;Laerm;28026;48.562;14.440;2022-10-31T14:50:17;42.44;36.45;57.41;;
37223;Laerm;28026;48.562;14.440;2022-10-31T14:52:56;43.39;37.70;58.68;;
37223;Laerm;28026;48.562;14.440;2022-10-31T14:55:28;43.87;38.21;70.25;;
37223;Laerm;28026;48.562;14.440;2022-10-31T14:58:07;43.21;38.32;59.24;;
37223;Laerm;28026;48.562;14.440;2022-10-31T15:00:38;42.48;36.69;60.94;;
37223;Laerm;28026;48.562;14.440;2022-10-31T15:03:32;42.59;36.91;53.69;;
37223;Laerm;28026;48.562;14.440;2022-10-31T15:06:13;42.76;37.12;65.53;;
37223;Laerm;28026;48.562;14.440;2022-10-31T15:08:52;41.98;36.20;58.00;;
37223;Laerm;28026;48.562;14.440;2022-10-31T15:11:26;43.21;37.52;55.48;;
37223;Laerm;28026;48.562;14.440;2022-10-31T15:13:59;42.39;36.91;56.71;;
37223;Laerm;28026;48.562;14.440;2022-10-31T15:16:40;42.09;35.66;56.01;;
37223;Laerm;28026;48.562;14.440;2022-10-31T15:19:21;43.82;38.95;57.96;;
37223;Laerm;28026;48.562;14.440;2022-10-31T15:21:57;42.41;37.52;56.74;;
37223;Laerm;28026;48.562;14.440;2022-10-31T15:24:38;44.58;37.70;66.86;;
37223;Laerm;28026;48.562;14.440;2022-10-31T15:27:17;43.50;37.52;62.90;;
37223;Laerm;28026;48.562;14.440;2022-10-31T15:29:55;43.12;37.35;57.25;;
37223;Laerm;28026;48.562;14.440;2022-10-31T15:32:29;43.27;38.37;64.70;;
37223;Laerm;28026;48.562;14.440;2022-10-31T15:35:00;42.76;37.70;55.40;;
37223;Laerm;28026;48.562;14.440;2022-10-31T15:37:30;42.33;37.88;49.64;;
37223;Laerm;28026;48.562;14.440;2022-10-31T15:40:17;42.51;37.88;53.03;;
37223;Laerm;28026;48.562;14.440;2022-10-31T15:43:05;42.49;35.94;50.80;;
37223;Laerm;28026;48.562;14.440;2022-10-31T15:45:37;40.69;36.20;47.59;;
37223;Laerm;28026;48.562;14.440;2022-10-31T15:48:22;42.54;36.45;50.73;;
37223;Laerm;28026;48.562;14.440;2022-10-31T15:50:58;43.07;35.94;55.11;;
37223;Laerm;28026;48.562;14.440;2022-10-31T15:53:44;42.37;37.32;52.61;;
37223;Laerm;28026;48.562;14.440;2022-10-31T15:56:27;42.65;37.88;47.91;;
37223;Laerm;28026;48.562;14.440;2022-10-31T15:59:00;43.01;38.67;46.71;;
37223;Laerm;28026;48.562;14.440;2022-10-31T16:01:33;42.36;36.45;49.44;;
37223;Laerm;28026;48.562;14.440;2022-10-31T16:06:41;41.13;37.52;56.18;;
37223;Laerm;28026;48.562;14.440;2022-10-31T16:09:23;42.74;37.87;52.16;;
37223;Laerm;28026;48.562;14.440;2022-10-31T16:11:57;44.04;37.32;56.02;;
37223;Laerm;28026;48.562;14.440;2022-10-31T16:14:39;45.85;39.34;67.15;;
37223;Laerm;28026;48.562;14.440;2022-10-31T16:17:15;41.99;37.70;54.49;;
37223;Laerm;28026;48.562;14.440;2022-10-31T16:19:56;42.56;37.52;57.75;;
37223;Laerm;28026;48.562;14.440;2022-10-31T16:22:35;40.66;36.20;49.40;;